createdAt,value
2018-06-07T00:00:07.980Z,4.40
2018-06-07T00:01:11.376Z,4.40
2018-06-07T00:02:14.780Z,4.20
2018-06-07T00:03:18.219Z,4.42
2018-06-07T00:04:21.591Z,4.97
2018-06-07T00:05:24.945Z,4.50
2018-06-07T00:06:28.271Z,4.85
2018-06-07T00:07:31.656Z,4.92
2018-06-07T00:08:35.051Z,4.60
2018-06-07T00:09:38.412Z,4.33
2018-06-07T00:10:41.755Z,3.95
2018-06-07T00:11:45.114Z,4.30
2018-06-07T00:12:48.474Z,4.53
2018-06-07T00:13:51.866Z,4.00
2018-06-07T00:14:55.217Z,4.15
2018-06-07T00:15:58.597Z,5.22
2018-06-07T00:17:01.965Z,4.47
2018-06-07T00:18:05.416Z,4.22
2018-06-07T00:19:08.809Z,4.87
2018-06-07T00:20:12.197Z,4.25
2018-06-07T00:21:15.534Z,3.80
2018-06-07T00:22:18.924Z,3.90
2018-06-07T00:23:22.297Z,3.62
2018-06-07T00:24:25.631Z,4.22
2018-06-07T00:25:29.885Z,2.87
2018-06-07T00:26:33.251Z,3.45
2018-06-07T00:27:36.644Z,3.58
2018-06-07T00:28:39.998Z,4.33
2018-06-07T00:29:43.362Z,3.40
2018-06-07T00:30:46.767Z,3.62
2018-06-07T00:31:50.109Z,4.00
2018-06-07T00:32:53.523Z,4.60
2018-06-07T00:33:56.891Z,4.20
2018-06-07T00:35:00.231Z,3.92
2018-06-07T00:36:03.632Z,3.72
2018-06-07T00:37:07.010Z,4.10
2018-06-07T00:38:10.364Z,4.20
2018-06-07T00:39:13.780Z,3.62
2018-06-07T00:40:17.167Z,4.45
2018-06-07T00:41:20.513Z,3.98
2018-06-07T00:42:23.872Z,3.90
2018-06-07T00:43:27.239Z,4.35
2018-06-07T00:44:30.580Z,3.62
2018-06-07T00:45:33.982Z,3.58
2018-06-07T00:46:37.354Z,4.33
2018-06-07T00:47:40.712Z,3.85
2018-06-07T00:48:44.070Z,4.00
2018-06-07T00:49:47.472Z,4.05
2018-06-07T00:50:50.813Z,4.45
2018-06-07T00:51:54.211Z,3.70
2018-06-07T00:52:57.576Z,3.35
2018-06-07T00:54:00.911Z,3.52
2018-06-07T00:55:04.292Z,4.40
2018-06-07T00:56:07.646Z,4.17
2018-06-07T00:57:11.047Z,3.65
2018-06-07T00:58:14.397Z,4.22
2018-06-07T00:59:17.753Z,3.47
2018-06-07T01:00:20.846Z,3.47
2018-06-07T01:01:24.219Z,3.50
2018-06-07T01:02:27.607Z,4.08
2018-06-07T01:03:30.946Z,4.00
2018-06-07T01:04:34.399Z,3.67
2018-06-07T01:05:37.784Z,4.35
2018-06-07T01:06:41.136Z,3.40
2018-06-07T01:07:44.512Z,3.70
2018-06-07T01:08:47.879Z,4.45
2018-06-07T01:09:51.235Z,3.70
2018-06-07T01:10:54.581Z,3.60
2018-06-07T01:11:57.969Z,4.20
2018-06-07T01:13:01.339Z,3.65
2018-06-07T01:14:04.762Z,3.90
2018-06-07T01:15:08.106Z,4.22
2018-06-07T01:16:11.451Z,3.75
2018-06-07T01:17:14.802Z,3.17
2018-06-07T01:18:18.148Z,3.87
2018-06-07T01:19:21.556Z,4.67
2018-06-07T01:20:24.922Z,3.52
2018-06-07T01:21:28.318Z,3.92
2018-06-07T01:22:31.716Z,3.40
2018-06-07T01:23:35.099Z,4.28
2018-06-07T01:24:38.436Z,4.20
2018-06-07T01:25:41.835Z,3.58
2018-06-07T01:26:46.863Z,3.72
2018-06-07T01:27:50.247Z,3.47
2018-06-07T01:28:53.579Z,3.85
2018-06-07T01:30:08.821Z,3.90
2018-06-07T01:31:17.485Z,4.10
2018-06-07T01:33:45.982Z,3.90
2018-06-07T01:34:49.367Z,4.20
2018-06-07T01:35:53.139Z,3.22
2018-06-07T01:36:56.465Z,3.60
2018-06-07T01:38:11.314Z,3.72
2018-06-07T01:39:15.281Z,4.30
2018-06-07T01:40:18.640Z,3.37
2018-06-07T01:41:22.757Z,3.30
2018-06-07T01:42:26.508Z,3.60
2018-06-07T01:43:30.531Z,3.90
2018-06-07T01:44:33.898Z,4.03
2018-06-07T01:45:37.243Z,3.90
2018-06-07T01:46:40.612Z,3.20
2018-06-07T01:47:43.687Z,3.02
2018-06-07T01:48:47.113Z,3.15
2018-06-07T01:49:50.502Z,3.60
2018-06-07T01:50:53.842Z,4.12
2018-06-07T01:51:57.177Z,3.47
2018-06-07T01:53:00.618Z,3.60
2018-06-07T01:54:04.092Z,3.37
2018-06-07T01:55:07.455Z,3.50
2018-06-07T01:56:10.851Z,3.92
2018-06-07T01:58:23.981Z,3.65
2018-06-07T01:59:27.063Z,3.40
2018-06-07T02:00:30.443Z,3.60
2018-06-07T02:01:34.338Z,3.47
2018-06-07T02:02:37.680Z,3.90
2018-06-07T02:03:41.019Z,3.92
2018-06-07T02:04:44.410Z,4.35
2018-06-07T02:05:47.774Z,4.12
2018-06-07T02:06:51.178Z,4.30
2018-06-07T02:07:54.527Z,3.50
2018-06-07T02:08:57.927Z,3.45
2018-06-07T02:10:01.267Z,3.87
2018-06-07T02:11:04.652Z,3.95
2018-06-07T02:12:08.045Z,3.58
2018-06-07T02:13:11.410Z,3.90
2018-06-07T02:14:14.784Z,3.12
2018-06-07T02:15:18.186Z,4.00
2018-06-07T02:16:21.536Z,3.90
2018-06-07T02:17:24.891Z,4.12
2018-06-07T02:18:28.296Z,3.90
2018-06-07T02:19:31.660Z,3.50
2018-06-07T02:20:35.023Z,3.40
2018-06-07T02:21:45.128Z,4.15
2018-06-07T02:22:48.486Z,3.80
2018-06-07T02:23:51.864Z,3.50
2018-06-07T02:24:55.196Z,3.35
2018-06-07T02:25:58.547Z,3.40
2018-06-07T02:27:02.005Z,3.47
2018-06-07T02:28:05.354Z,3.70
2018-06-07T02:29:08.775Z,3.60
2018-06-07T02:30:12.129Z,3.15
2018-06-07T02:31:15.497Z,3.67
2018-06-07T02:32:18.906Z,3.50
2018-06-07T02:33:22.263Z,4.03
2018-06-07T02:34:25.628Z,3.55
2018-06-07T02:35:28.984Z,3.80
2018-06-07T02:36:32.327Z,4.37
2018-06-07T02:37:35.688Z,3.47
2018-06-07T02:38:39.035Z,4.17
2018-06-07T02:39:42.400Z,4.05
2018-06-07T02:40:45.758Z,4.17
2018-06-07T02:41:49.153Z,3.95
2018-06-07T02:42:52.479Z,3.50
2018-06-07T02:43:55.874Z,3.75
2018-06-07T02:44:59.238Z,3.10
2018-06-07T02:46:02.572Z,3.22
2018-06-07T02:47:05.937Z,3.55
2018-06-07T02:48:09.278Z,3.52
2018-06-07T02:49:12.675Z,3.80
2018-06-07T02:50:16.065Z,3.90
2018-06-07T02:51:19.414Z,3.70
2018-06-07T02:52:22.744Z,3.70
2018-06-07T02:53:26.072Z,3.20
2018-06-07T02:54:29.447Z,3.70
2018-06-07T02:55:32.942Z,3.80
2018-06-07T02:56:36.269Z,3.72
2018-06-07T02:57:39.618Z,3.50
2018-06-07T02:58:43.001Z,3.60
2018-06-07T02:59:46.326Z,3.33
2018-06-07T03:00:49.730Z,3.33
2018-06-07T03:01:53.064Z,4.17
2018-06-07T03:02:56.409Z,4.12
2018-06-07T03:03:59.783Z,4.05
2018-06-07T03:05:03.106Z,3.45
2018-06-07T03:06:06.613Z,3.60
2018-06-07T03:07:09.951Z,3.45
2018-06-07T03:08:13.313Z,3.95
2018-06-07T03:09:16.652Z,3.77
2018-06-07T03:10:20.012Z,3.45
2018-06-07T03:11:23.369Z,3.62
2018-06-07T03:12:26.704Z,3.08
2018-06-07T03:13:30.072Z,3.10
2018-06-07T03:14:33.475Z,3.95
2018-06-07T03:15:36.791Z,3.52
2018-06-07T03:16:40.118Z,3.60
2018-06-07T03:17:43.455Z,3.90
2018-06-07T03:18:46.808Z,3.87
2018-06-07T03:19:50.162Z,3.27
2018-06-07T03:20:53.510Z,3.40
2018-06-07T03:21:56.840Z,4.12
2018-06-07T03:23:00.236Z,3.02
2018-06-07T03:24:03.591Z,3.33
2018-06-07T03:25:06.936Z,3.70
2018-06-07T03:26:10.252Z,3.62
2018-06-07T03:27:13.588Z,3.15
2018-06-07T03:28:16.955Z,3.70
2018-06-07T03:29:20.290Z,3.20
2018-06-07T03:30:23.628Z,3.52
2018-06-07T03:31:27.008Z,3.20
2018-06-07T03:32:30.339Z,3.72
2018-06-07T03:33:33.703Z,3.95
2018-06-07T03:34:37.019Z,3.22
2018-06-07T03:35:40.331Z,3.47
2018-06-07T03:36:43.688Z,3.33
2018-06-07T03:37:47.018Z,3.42
2018-06-07T03:38:50.342Z,3.10
2018-06-07T03:40:00.132Z,3.30
2018-06-07T03:41:03.543Z,3.25
2018-06-07T03:42:06.869Z,3.67
2018-06-07T03:43:10.927Z,3.40
2018-06-07T03:44:15.059Z,3.35
2018-06-07T03:45:18.420Z,3.60
2018-06-07T03:46:21.763Z,3.12
2018-06-07T03:47:25.091Z,3.35
2018-06-07T03:48:28.410Z,3.50
2018-06-07T03:49:31.741Z,3.50
2018-06-07T03:50:35.096Z,3.52
2018-06-07T03:51:38.462Z,3.42
2018-06-07T03:52:41.827Z,4.10
2018-06-07T03:53:45.176Z,2.92
2018-06-07T03:54:48.540Z,2.92
2018-06-07T03:55:51.871Z,3.40
2018-06-07T03:56:55.239Z,3.58
2018-06-07T03:57:58.571Z,3.98
2018-06-07T03:59:01.934Z,3.58
2018-06-07T04:00:05.392Z,3.55
2018-06-07T04:01:08.725Z,3.70
2018-06-07T04:02:12.048Z,3.77
2018-06-07T04:03:15.370Z,3.72
2018-06-07T04:04:18.691Z,3.37
2018-06-07T04:05:22.027Z,3.95
2018-06-07T04:06:25.364Z,3.77
2018-06-07T04:07:28.692Z,4.53
2018-06-07T04:08:32.025Z,4.42
2018-06-07T04:09:35.431Z,4.15
2018-06-07T04:10:38.768Z,4.20
2018-06-07T04:11:42.112Z,4.03
2018-06-07T04:12:45.463Z,3.95
2018-06-07T04:13:48.820Z,3.85
2018-06-07T04:14:52.201Z,4.70
2018-06-07T04:15:55.546Z,3.80
2018-06-07T04:16:58.906Z,4.95
2018-06-07T04:18:02.230Z,3.90
2018-06-07T04:19:05.616Z,4.25
2018-06-07T04:20:09.007Z,4.60
2018-06-07T04:21:12.340Z,4.15
2018-06-07T04:22:15.719Z,4.60
2018-06-07T04:23:19.152Z,3.70
2018-06-07T04:24:22.493Z,3.70
2018-06-07T04:25:25.853Z,4.28
2018-06-07T04:26:29.205Z,4.08
2018-06-07T04:27:32.529Z,4.05
2018-06-07T04:28:35.906Z,4.03
2018-06-07T04:29:39.252Z,3.72
2018-06-07T04:30:42.628Z,3.42
2018-06-07T04:31:45.710Z,4.10
2018-06-07T04:32:49.045Z,3.52
2018-06-07T04:33:52.372Z,3.80
2018-06-07T04:34:55.472Z,3.30
2018-06-07T04:35:58.860Z,3.45
2018-06-07T04:37:02.231Z,3.92
2018-06-07T04:38:05.609Z,3.75
2018-06-07T04:39:08.972Z,3.12
2018-06-07T04:40:12.336Z,3.72
2018-06-07T04:41:15.735Z,3.52
2018-06-07T04:42:19.092Z,3.83
2018-06-07T04:43:22.456Z,3.40
2018-06-07T04:44:25.843Z,3.75
2018-06-07T04:45:29.212Z,3.27
2018-06-07T04:46:32.330Z,3.62
2018-06-07T04:47:35.689Z,3.70
2018-06-07T04:48:39.054Z,3.70
2018-06-07T04:49:42.434Z,3.50
2018-06-07T04:50:45.855Z,3.87
2018-06-07T04:51:49.208Z,4.15
2018-06-07T04:52:52.606Z,4.22
2018-06-07T04:53:55.953Z,4.90
2018-06-07T04:54:59.320Z,4.72
2018-06-07T04:56:02.716Z,3.85
2018-06-07T04:57:06.063Z,4.72
2018-06-07T04:58:09.403Z,4.83
2018-06-07T04:59:12.786Z,4.20
2018-06-07T05:00:16.189Z,4.33
2018-06-07T05:01:19.565Z,5.05
2018-06-07T05:02:22.895Z,4.53
2018-06-07T05:03:26.290Z,3.90
2018-06-07T05:04:29.644Z,3.55
2018-06-07T05:05:33.024Z,3.10
2018-06-07T05:06:36.371Z,3.00
2018-06-07T05:07:39.770Z,3.37
2018-06-07T05:08:43.259Z,3.30
2018-06-07T05:09:46.611Z,3.00
2018-06-07T05:10:49.985Z,2.70
2018-06-07T05:11:53.338Z,2.98
2018-06-07T05:12:56.724Z,4.00
2018-06-07T05:14:00.080Z,2.90
2018-06-07T05:15:03.455Z,2.70
2018-06-07T05:16:06.791Z,3.40
2018-06-07T05:17:10.168Z,2.65
2018-06-07T05:18:13.527Z,4.47
2018-06-07T05:19:16.984Z,3.62
2018-06-07T05:20:20.387Z,3.55
2018-06-07T05:21:23.726Z,3.20
2018-06-07T05:22:27.058Z,3.75
2018-06-07T05:23:30.419Z,3.85
2018-06-07T05:24:33.776Z,3.58
2018-06-07T05:25:37.161Z,3.30
2018-06-07T05:26:40.508Z,3.50
2018-06-07T05:27:43.843Z,3.37
2018-06-07T05:28:47.172Z,4.72
2018-06-07T05:29:50.520Z,3.90
2018-06-07T05:30:53.891Z,4.25
2018-06-07T05:31:57.244Z,4.58
2018-06-07T05:33:00.572Z,3.75
2018-06-07T05:34:03.928Z,3.58
2018-06-07T05:35:07.267Z,4.20
2018-06-07T05:36:10.622Z,4.42
2018-06-07T05:37:13.959Z,3.85
2018-06-07T05:38:17.292Z,3.83
2018-06-07T05:39:20.644Z,4.12
2018-06-07T05:40:24.001Z,3.80
2018-06-07T05:41:27.375Z,3.92
2018-06-07T05:42:30.736Z,3.42
2018-06-07T05:43:34.075Z,3.12
2018-06-07T05:44:37.409Z,3.75
2018-06-07T05:45:40.730Z,3.65
2018-06-07T05:46:44.117Z,3.83
2018-06-07T05:47:47.452Z,4.87
2018-06-07T05:48:50.785Z,3.85
2018-06-07T05:49:54.118Z,4.37
2018-06-07T05:50:57.470Z,3.40
2018-06-07T05:52:00.921Z,3.67
2018-06-07T05:53:04.228Z,3.17
2018-06-07T05:54:07.556Z,3.50
2018-06-07T05:55:10.893Z,3.42
2018-06-07T05:56:14.225Z,3.20
2018-06-07T05:57:17.613Z,3.75
2018-06-07T05:58:20.671Z,3.65
2018-06-07T05:59:24.059Z,3.50
2018-06-07T06:00:27.392Z,3.70
2018-06-07T06:01:30.740Z,3.50
2018-06-07T06:02:34.114Z,3.00
2018-06-07T06:03:37.493Z,4.03
2018-06-07T06:04:40.870Z,3.27
2018-06-07T06:05:44.208Z,3.12
2018-06-07T06:06:47.568Z,3.80
2018-06-07T06:07:50.920Z,3.27
2018-06-07T06:08:54.299Z,3.10
2018-06-07T06:09:57.625Z,2.72
2018-06-07T06:11:00.990Z,3.52
2018-06-07T06:12:04.355Z,2.83
2018-06-07T06:13:07.727Z,2.75
2018-06-07T06:14:11.095Z,2.77
2018-06-07T06:15:14.445Z,3.67
2018-06-07T06:16:17.776Z,2.87
2018-06-07T06:17:21.115Z,2.75
2018-06-07T06:18:24.475Z,3.27
2018-06-07T06:19:27.812Z,3.10
2018-06-07T06:20:31.146Z,3.20
2018-06-07T06:21:34.481Z,3.20
2018-06-07T06:22:37.810Z,3.27
2018-06-07T06:23:41.216Z,3.20
2018-06-07T06:24:44.560Z,3.90
2018-06-07T06:25:47.893Z,3.05
2018-06-07T06:26:51.284Z,3.80
2018-06-07T06:27:54.625Z,3.42
2018-06-07T06:28:58.032Z,3.30
2018-06-07T06:30:01.395Z,3.25
2018-06-07T06:31:11.211Z,3.80
2018-06-07T06:32:14.618Z,3.60
2018-06-07T06:33:17.942Z,3.70
2018-06-07T06:34:21.332Z,3.47
2018-06-07T06:35:24.685Z,3.50
2018-06-07T06:36:28.032Z,3.27
2018-06-07T06:38:47.372Z,2.80
2018-06-07T06:39:50.743Z,2.90
2018-06-07T06:40:54.107Z,2.40
2018-06-07T06:41:57.440Z,2.70
2018-06-07T06:43:00.771Z,2.17
2018-06-07T06:44:04.171Z,2.37
2018-06-07T06:45:07.545Z,2.50
2018-06-07T06:46:10.910Z,2.80
2018-06-07T06:47:14.277Z,2.65
2018-06-07T06:48:17.625Z,2.75
2018-06-07T06:49:21.040Z,3.33
2018-06-07T06:50:24.335Z,2.90
2018-06-07T06:51:27.696Z,2.67
2018-06-07T06:52:31.044Z,2.83
2018-06-07T06:53:34.415Z,2.85
2018-06-07T06:54:37.760Z,3.05
2018-06-07T06:55:41.132Z,3.20
2018-06-07T06:56:44.508Z,3.50
2018-06-07T06:57:47.847Z,2.62
2018-06-07T06:58:51.187Z,2.83
2018-06-07T06:59:54.516Z,3.02
2018-06-07T07:00:57.864Z,2.80
2018-06-07T07:02:01.235Z,3.08
2018-06-07T07:03:04.567Z,2.95
2018-06-07T07:04:07.932Z,3.17
2018-06-07T07:05:11.303Z,2.85
2018-06-07T07:06:14.645Z,3.05
2018-06-07T07:07:17.984Z,2.70
2018-06-07T07:08:21.334Z,3.62
2018-06-07T07:09:24.698Z,2.70
2018-06-07T07:10:28.071Z,3.60
2018-06-07T07:11:31.418Z,3.10
2018-06-07T07:12:34.792Z,3.05
2018-06-07T07:13:38.141Z,3.47
2018-06-07T07:14:41.489Z,3.43
2018-06-07T07:15:44.867Z,3.43
2018-06-07T07:16:48.218Z,2.80
2018-06-07T07:17:51.548Z,3.57
2018-06-07T07:18:54.881Z,3.80
2018-06-07T07:19:58.224Z,3.20
2018-06-07T07:21:01.582Z,3.30
2018-06-07T07:22:04.928Z,3.15
2018-06-07T07:23:08.258Z,2.70
2018-06-07T07:24:11.822Z,3.47
2018-06-07T07:25:15.149Z,3.05
2018-06-07T07:26:18.794Z,3.63
2018-06-07T07:27:22.141Z,2.85
2018-06-07T07:28:25.496Z,3.30
2018-06-07T07:29:28.871Z,3.53
2018-06-07T07:30:32.245Z,3.70
2018-06-07T07:31:35.592Z,2.97
2018-06-07T07:32:38.940Z,2.97
2018-06-07T07:33:42.263Z,3.67
2018-06-07T07:34:45.612Z,3.47
2018-06-07T07:35:48.944Z,3.43
2018-06-07T07:36:52.314Z,2.90
2018-06-07T07:37:55.657Z,3.73
2018-06-07T07:38:58.982Z,3.70
2018-06-07T07:40:02.328Z,3.37
2018-06-07T07:41:05.671Z,3.47
2018-06-07T07:42:09.051Z,2.90
2018-06-07T07:43:12.388Z,3.10
2018-06-07T07:44:15.720Z,3.53
2018-06-07T07:45:19.102Z,3.97
2018-06-07T07:46:22.405Z,4.13
2018-06-07T07:47:25.788Z,3.53
2018-06-07T07:48:29.123Z,3.33
2018-06-07T07:49:32.451Z,3.30
2018-06-07T07:50:35.789Z,4.03
2018-06-07T07:51:39.136Z,3.70
2018-06-07T07:52:42.500Z,3.30
2018-06-07T07:53:45.860Z,3.80
2018-06-07T07:54:48.974Z,3.90
2018-06-07T07:55:52.336Z,3.47
2018-06-07T07:56:55.683Z,3.50
2018-06-07T07:57:59.014Z,3.60
2018-06-07T07:59:02.340Z,3.20
2018-06-07T08:00:05.751Z,3.90
2018-06-07T08:01:09.092Z,3.63
2018-06-07T08:02:12.426Z,3.70
2018-06-07T08:03:22.147Z,4.20
2018-06-07T08:04:25.464Z,3.50
2018-06-07T08:05:28.848Z,4.20
2018-06-07T08:06:32.201Z,3.93
2018-06-07T08:07:35.528Z,3.93
2018-06-07T08:08:38.888Z,4.30
2018-06-07T08:09:42.222Z,4.60
2018-06-07T08:10:45.586Z,3.97
2018-06-07T08:11:48.925Z,3.77
2018-06-07T08:12:52.270Z,3.97
2018-06-07T08:13:55.601Z,3.87
2018-06-07T08:14:58.968Z,3.30
2018-06-07T08:16:02.315Z,3.70
2018-06-07T08:17:05.684Z,3.07
2018-06-07T08:18:15.584Z,4.03
2018-06-07T08:19:18.975Z,3.90
2018-06-07T08:20:22.363Z,3.60
2018-06-07T08:21:25.711Z,4.00
2018-06-07T08:22:29.071Z,4.07
2018-06-07T08:23:32.404Z,3.60
2018-06-07T08:24:35.745Z,3.43
2018-06-07T08:25:39.127Z,3.60
2018-06-07T08:26:42.462Z,3.67
2018-06-07T08:27:45.784Z,4.43
2018-06-07T08:28:49.135Z,3.47
2018-06-07T08:29:52.482Z,4.33
2018-06-07T08:30:55.892Z,4.37
2018-06-07T08:31:59.246Z,4.13
2018-06-07T08:33:02.602Z,3.50
2018-06-07T08:34:05.962Z,4.40
2018-06-07T08:35:09.308Z,3.37
2018-06-07T08:36:12.658Z,4.33
2018-06-07T08:37:16.005Z,4.37
2018-06-07T08:38:19.353Z,4.53
2018-06-07T08:39:22.718Z,3.40
2018-06-07T08:40:26.092Z,3.80
2018-06-07T08:41:29.433Z,3.80
2018-06-07T08:42:32.762Z,3.67
2018-06-07T08:43:36.108Z,3.80
2018-06-07T08:44:39.511Z,4.00
2018-06-07T08:45:42.863Z,3.57
2018-06-07T08:46:46.239Z,4.20
2018-06-07T08:47:49.601Z,3.80
2018-06-07T08:48:52.946Z,4.20
2018-06-07T08:49:56.287Z,4.40
2018-06-07T08:50:59.650Z,4.30
2018-06-07T08:52:03.004Z,3.53
2018-06-07T08:53:06.369Z,3.80
2018-06-07T08:54:09.708Z,4.10
2018-06-07T08:55:13.056Z,4.40
2018-06-07T08:56:16.522Z,3.63
2018-06-07T08:57:19.855Z,4.17
2018-06-07T08:58:23.190Z,4.10
2018-06-07T08:59:26.510Z,4.23
2018-06-07T09:00:29.906Z,3.60
2018-06-07T09:01:33.273Z,4.13
2018-06-07T09:02:36.613Z,4.23
2018-06-07T09:03:39.993Z,4.00
2018-06-07T09:04:43.343Z,4.20
2018-06-07T09:05:46.677Z,4.30
2018-06-07T09:06:50.024Z,4.10
2018-06-07T09:07:53.358Z,5.03
2018-06-07T09:08:56.728Z,4.00
2018-06-07T09:10:00.083Z,4.40
2018-06-07T09:11:03.415Z,5.27
2018-06-07T09:12:06.736Z,4.17
2018-06-07T09:13:10.099Z,4.03
2018-06-07T09:14:13.503Z,3.97
2018-06-07T09:15:16.833Z,4.80
2018-06-07T09:16:20.174Z,4.53
2018-06-07T09:17:23.545Z,4.40
2018-06-07T09:18:26.883Z,4.23
2018-06-07T09:19:30.290Z,3.97
2018-06-07T09:20:33.597Z,3.73
2018-06-07T09:21:36.931Z,4.47
2018-06-07T09:22:40.256Z,4.17
2018-06-07T09:23:43.599Z,4.27
2018-06-07T09:24:46.989Z,4.33
2018-06-07T09:25:50.307Z,4.40
2018-06-07T09:26:53.627Z,4.33
2018-06-07T09:27:56.969Z,3.93
2018-06-07T09:29:00.300Z,4.13
2018-06-07T09:30:03.687Z,5.03
2018-06-07T09:31:07.084Z,5.17
2018-06-07T09:32:10.408Z,4.00
2018-06-07T09:33:13.755Z,3.93
2018-06-07T09:34:17.140Z,5.63
2018-06-07T09:35:20.483Z,5.30
2018-06-07T09:36:23.819Z,3.93
2018-06-07T09:37:33.591Z,4.80
2018-06-07T09:38:36.955Z,4.57
2018-06-07T09:39:40.283Z,4.43
2018-06-07T09:40:43.643Z,4.80
2018-06-07T09:41:46.967Z,5.30
2018-06-07T09:42:50.315Z,4.93
2018-06-07T09:43:53.716Z,5.30
2018-06-07T09:44:57.104Z,5.50
2018-06-07T09:46:00.436Z,4.73
2018-06-07T09:47:03.903Z,5.27
2018-06-07T09:48:07.239Z,5.70
2018-06-07T09:49:10.589Z,5.53
2018-06-07T09:50:13.936Z,4.93
2018-06-07T09:51:17.269Z,5.27
2018-06-07T09:52:20.628Z,4.17
2018-06-07T09:53:23.964Z,5.23
2018-06-07T09:54:27.324Z,5.40
2018-06-07T09:55:30.648Z,5.47
2018-06-07T09:56:33.989Z,5.37
2018-06-07T09:57:37.328Z,5.80
2018-06-07T09:58:40.708Z,5.63
2018-06-07T09:59:44.081Z,5.90
2018-06-07T10:00:47.406Z,5.70
2018-06-07T10:01:50.868Z,5.40
2018-06-07T10:02:54.512Z,5.53
2018-06-07T10:03:57.849Z,6.20
2018-06-07T10:05:01.175Z,5.87
2018-06-07T10:06:04.244Z,5.37
2018-06-07T10:07:07.608Z,5.63
2018-06-07T10:08:10.962Z,6.10
2018-06-07T10:09:14.289Z,6.97
2018-06-07T10:10:17.709Z,5.47
2018-06-07T10:11:21.038Z,6.00
2018-06-07T10:12:24.424Z,5.83
2018-06-07T10:13:27.746Z,6.57
2018-06-07T10:14:31.060Z,5.63
2018-06-07T10:15:34.391Z,6.00
2018-06-07T10:16:37.726Z,5.67
2018-06-07T10:17:41.120Z,5.90
2018-06-07T10:18:44.486Z,6.10
2018-06-07T10:19:47.555Z,6.17
2018-06-07T10:20:50.883Z,6.37
2018-06-07T10:21:54.214Z,5.97
2018-06-07T10:22:57.539Z,6.73
2018-06-07T10:24:00.917Z,6.27
2018-06-07T10:25:04.701Z,5.73
2018-06-07T10:26:08.045Z,5.60
2018-06-07T10:27:11.379Z,6.60
2018-06-07T10:28:14.827Z,5.90
2018-06-07T10:29:18.198Z,6.67
2018-06-07T10:30:21.511Z,6.80
2018-06-07T10:31:24.834Z,6.03
2018-06-07T10:32:28.153Z,5.63
2018-06-07T10:33:31.525Z,6.67
2018-06-07T10:34:34.879Z,6.20
2018-06-07T10:35:38.231Z,6.57
2018-06-07T10:36:41.568Z,6.83
2018-06-07T10:37:44.899Z,6.77
2018-06-07T10:38:48.256Z,6.13
2018-06-07T10:39:51.583Z,6.43
2018-06-07T10:40:55.010Z,6.00
2018-06-07T10:41:58.350Z,6.40
2018-06-07T10:43:01.682Z,6.30
2018-06-07T10:44:05.014Z,5.97
2018-06-07T10:45:08.404Z,6.70
2018-06-07T10:46:11.744Z,6.67
2018-06-07T10:47:15.079Z,7.37
2018-06-07T10:48:18.395Z,6.50
2018-06-07T10:49:21.780Z,6.57
2018-06-07T10:50:25.103Z,6.60
2018-06-07T10:51:28.463Z,6.67
2018-06-07T10:52:31.862Z,7.33
2018-06-07T10:53:35.176Z,6.20
2018-06-07T10:54:38.539Z,6.43
2018-06-07T10:55:41.862Z,6.60
2018-06-07T10:56:44.929Z,6.40
2018-06-07T10:57:48.327Z,6.30
2018-06-07T10:58:51.705Z,7.67
2018-06-07T10:59:55.004Z,7.07
2018-06-07T11:00:58.057Z,7.30
2018-06-07T11:02:01.404Z,6.80
2018-06-07T11:03:04.794Z,7.10
2018-06-07T11:04:08.135Z,6.70
2018-06-07T11:05:11.464Z,7.10
2018-06-07T11:06:14.783Z,6.60
2018-06-07T11:07:18.112Z,6.93
2018-06-07T11:08:21.475Z,6.37
2018-06-07T11:09:24.835Z,6.50
2018-06-07T11:10:28.155Z,7.07
2018-06-07T11:11:31.507Z,7.20
2018-06-07T11:12:34.884Z,6.10
2018-06-07T11:13:38.214Z,7.30
2018-06-07T11:14:41.596Z,6.80
2018-06-07T11:15:44.875Z,6.60
2018-06-07T11:16:48.235Z,7.50
2018-06-07T11:17:51.551Z,6.87
2018-06-07T11:18:54.879Z,5.80
2018-06-07T11:19:58.211Z,7.00
2018-06-07T11:21:01.544Z,6.70
2018-06-07T11:22:04.907Z,6.40
2018-06-07T11:23:08.243Z,7.23
2018-06-07T11:24:11.572Z,6.57
2018-06-07T11:25:14.918Z,6.87
2018-06-07T11:26:18.281Z,6.50
2018-06-07T11:27:21.615Z,6.40
2018-06-07T11:28:24.944Z,6.93
2018-06-07T11:29:28.271Z,6.80
2018-06-07T11:30:31.597Z,7.30
2018-06-07T11:31:34.952Z,6.97
2018-06-07T11:32:38.274Z,6.97
2018-06-07T11:33:41.606Z,6.90
2018-06-07T11:34:44.922Z,7.33
2018-06-07T11:35:48.248Z,6.90
2018-06-07T11:36:51.632Z,6.50
2018-06-07T11:37:54.995Z,7.37
2018-06-07T11:38:58.327Z,6.90
2018-06-07T11:40:01.648Z,6.77
2018-06-07T11:41:05.024Z,7.00
2018-06-07T11:42:08.372Z,6.90
2018-06-07T11:43:11.716Z,6.30
2018-06-07T11:44:15.036Z,6.37
2018-06-07T11:45:18.389Z,6.70
2018-06-07T11:46:28.532Z,7.10
2018-06-07T11:47:31.858Z,7.70
2018-06-07T11:48:35.186Z,7.40
2018-06-07T11:49:38.508Z,7.00
2018-06-07T11:50:41.867Z,7.40
2018-06-07T11:51:45.190Z,7.33
2018-06-07T11:52:48.531Z,7.00
2018-06-07T11:53:51.864Z,7.27
2018-06-07T11:54:55.235Z,7.83
2018-06-07T11:55:58.590Z,7.80
2018-06-07T11:57:01.968Z,7.80
2018-06-07T11:58:05.312Z,8.53
2018-06-07T11:59:08.447Z,7.53
2018-06-07T12:00:18.488Z,7.50
2018-06-07T12:01:21.858Z,7.73
2018-06-07T12:02:25.192Z,7.27
2018-06-07T12:03:28.552Z,7.07
2018-06-07T12:04:31.883Z,7.63
2018-06-07T12:05:35.206Z,6.80
2018-06-07T12:06:38.567Z,7.50
2018-06-07T12:07:41.897Z,7.17
2018-06-07T12:08:45.271Z,8.13
2018-06-07T12:09:48.614Z,7.57
2018-06-07T12:10:51.988Z,7.30
2018-06-07T12:11:55.332Z,7.40
2018-06-07T12:12:58.669Z,7.20
2018-06-07T12:14:02.036Z,7.60
2018-06-07T12:15:05.412Z,7.60
2018-06-07T12:16:08.774Z,7.80
2018-06-07T12:17:12.124Z,7.80
2018-06-07T12:18:15.477Z,6.40
2018-06-07T12:19:25.386Z,7.80
2018-06-07T12:20:28.708Z,6.90
2018-06-07T12:21:32.031Z,7.17
2018-06-07T12:22:35.402Z,7.23
2018-06-07T12:23:38.764Z,8.47
2018-06-07T12:24:42.078Z,7.07
2018-06-07T12:25:45.424Z,8.30
2018-06-07T12:26:48.751Z,7.37
2018-06-07T12:27:52.111Z,7.33
2018-06-07T12:28:55.479Z,6.43
2018-06-07T12:29:58.852Z,7.10
2018-06-07T12:31:02.179Z,7.53
2018-06-07T12:32:05.513Z,7.37
2018-06-07T12:33:08.884Z,7.23
2018-06-07T12:34:12.220Z,7.23
2018-06-07T12:35:15.559Z,6.80
2018-06-07T12:36:18.869Z,7.77
2018-06-07T12:37:22.204Z,8.17
2018-06-07T12:38:25.571Z,7.40
2018-06-07T12:39:28.897Z,7.90
2018-06-07T12:40:32.252Z,7.40
2018-06-07T12:41:35.915Z,7.50
2018-06-07T12:42:39.266Z,7.00
2018-06-07T12:43:42.639Z,7.10
2018-06-07T12:44:45.982Z,7.70
2018-06-07T12:45:49.322Z,7.67
2018-06-07T12:46:52.666Z,7.70
2018-06-07T12:47:55.984Z,6.90
2018-06-07T12:48:59.339Z,7.27
2018-06-07T12:50:02.706Z,7.20
2018-06-07T12:51:06.049Z,7.13
2018-06-07T12:52:09.383Z,8.00
2018-06-07T12:53:12.727Z,7.87
2018-06-07T12:54:16.076Z,7.77
2018-06-07T12:55:19.442Z,7.03
2018-06-07T12:56:22.509Z,8.23
2018-06-07T12:57:25.847Z,7.50
2018-06-07T12:58:29.181Z,7.30
2018-06-07T12:59:32.537Z,7.07
2018-06-07T13:00:35.941Z,7.83
2018-06-07T13:01:39.251Z,8.20
2018-06-07T13:02:42.590Z,7.47
2018-06-07T13:03:45.926Z,8.37
2018-06-07T13:04:49.283Z,8.07
2018-06-07T13:05:52.643Z,8.30
2018-06-07T13:06:55.984Z,8.40
2018-06-07T13:07:59.306Z,8.00
2018-06-07T13:09:02.717Z,7.77
2018-06-07T13:10:06.066Z,8.60
2018-06-07T13:11:09.395Z,7.53
2018-06-07T13:12:12.767Z,7.50
2018-06-07T13:13:16.091Z,8.53
2018-06-07T13:14:19.407Z,7.13
2018-06-07T13:15:29.232Z,8.07
2018-06-07T13:16:32.560Z,7.30
2018-06-07T13:17:35.935Z,7.50
2018-06-07T13:18:39.268Z,7.27
2018-06-07T13:19:42.599Z,8.37
2018-06-07T13:20:45.972Z,7.90
2018-06-07T13:21:49.322Z,8.13
2018-06-07T13:22:52.650Z,7.50
2018-06-07T13:23:55.967Z,8.37
2018-06-07T13:24:59.355Z,7.70
2018-06-07T13:26:02.691Z,7.70
2018-06-07T13:27:06.027Z,7.67
2018-06-07T13:28:09.347Z,8.03
2018-06-07T13:29:12.719Z,8.13
2018-06-07T13:30:16.066Z,7.63
2018-06-07T13:31:19.409Z,8.70
2018-06-07T13:32:22.738Z,7.90
2018-06-07T13:33:26.071Z,8.17
2018-06-07T13:34:29.458Z,8.17
2018-06-07T13:35:32.795Z,8.47
2018-06-07T13:36:36.126Z,7.90
2018-06-07T13:37:39.519Z,7.73
2018-06-07T13:38:42.862Z,7.73
2018-06-07T13:39:46.184Z,8.70
2018-06-07T13:40:49.566Z,7.83
2018-06-07T13:41:52.906Z,8.20
2018-06-07T13:42:56.263Z,7.17
2018-06-07T13:43:59.659Z,7.60
2018-06-07T13:45:03.015Z,8.03
2018-06-07T13:46:06.377Z,7.57
2018-06-07T13:47:09.716Z,7.87
2018-06-07T13:48:13.045Z,7.73
2018-06-07T13:49:16.374Z,8.37
2018-06-07T13:50:19.757Z,7.83
2018-06-07T13:51:23.105Z,8.37
2018-06-07T13:52:26.436Z,8.03
2018-06-07T13:53:29.773Z,7.97
2018-06-07T13:54:33.099Z,8.57
2018-06-07T13:55:36.452Z,7.97
2018-06-07T13:56:39.767Z,8.30
2018-06-07T13:57:43.092Z,8.30
2018-06-07T13:58:46.430Z,7.80
2018-06-07T13:59:49.829Z,8.20
2018-06-07T14:00:53.156Z,8.03
2018-06-07T14:01:56.491Z,8.83
2018-06-07T14:02:59.887Z,9.00
2018-06-07T14:04:03.208Z,9.10
2018-06-07T14:05:06.603Z,9.20
2018-06-07T14:06:09.887Z,9.13
2018-06-07T14:07:13.209Z,9.40
2018-06-07T14:08:16.595Z,8.77